sensor_id;sensor_type;location;lat;lon;timestamp;pressure;altitude;pressure_sealevel;temperature;humidity
43486;BME280;30447;48.742;8.972;2023-09-07T00:01:31;97142.00;;;14.11;97.46
43486;BME280;30447;48.742;8.972;2023-09-07T00:03:58;97145.41;;;14.15;97.14
43486;BME280;30447;48.742;8.972;2023-09-07T00:06:25;97142.84;;;14.10;96.82
43486;BME280;30447;48.742;8.972;2023-09-07T00:08:53;97145.63;;;13.95;97.02
43486;BME280;30447;48.742;8.972;2023-09-07T00:11:19;97136.88;;;14.04;96.02
43486;BME280;30447;48.742;8.972;2023-09-07T00:13:46;97147.31;;;14.02;96.34
43486;BME280;30447;48.742;8.972;2023-09-07T00:16:12;97142.19;;;13.93;96.68
43486;BME280;30447;48.742;8.972;2023-09-07T00:18:39;97144.97;;;13.72;98.10
43486;BME280;30447;48.742;8.972;2023-09-07T00:21:06;97139.69;;;13.82;98.45
43486;BME280;30447;48.742;8.972;2023-09-07T00:23:32;97144.91;;;13.80;98.33
43486;BME280;30447;48.742;8.972;2023-09-07T00:25:59;97137.91;;;13.85;96.92
43486;BME280;30447;48.742;8.972;2023-09-07T00:28:26;97146.56;;;13.87;96.28
43486;BME280;30447;48.742;8.972;2023-09-07T00:30:52;97140.56;;;13.82;96.69
43486;BME280;30447;48.742;8.972;2023-09-07T00:33:19;97133.66;;;13.77;97.18
43486;BME280;30447;48.742;8.972;2023-09-07T00:35:45;97139.97;;;13.52;97.12
43486;BME280;30447;48.742;8.972;2023-09-07T00:38:12;97139.03;;;13.58;97.14
43486;BME280;30447;48.742;8.972;2023-09-07T00:40:42;97141.63;;;13.58;96.50
43486;BME280;30447;48.742;8.972;2023-09-07T00:43:11;97138.19;;;13.56;96.55
43486;BME280;30447;48.742;8.972;2023-09-07T00:45:39;97134.78;;;13.44;97.03
43486;BME280;30447;48.742;8.972;2023-09-07T00:48:06;97135.59;;;13.56;96.68
43486;BME280;30447;48.742;8.972;2023-09-07T00:50:33;97140.78;;;13.56;96.64
43486;BME280;30447;48.742;8.972;2023-09-07T00:53:00;97136.38;;;13.64;96.33
43486;BME280;30447;48.742;8.972;2023-09-07T00:55:29;97140.78;;;13.59;96.48
43486;BME280;30447;48.742;8.972;2023-09-07T00:57:58;97134.78;;;13.44;96.55
43486;BME280;30447;48.742;8.972;2023-09-07T01:00:25;97133.91;;;13.42;96.48
43486;BME280;30447;48.742;8.972;2023-09-07T01:02:52;97132.19;;;13.43;95.75
43486;BME280;30447;48.742;8.972;2023-09-07T01:05:23;97141.72;;;13.44;96.54
43486;BME280;30447;48.742;8.972;2023-09-07T01:08:07;97139.12;;;13.44;96.52
43486;BME280;30447;48.742;8.972;2023-09-07T01:10:41;97133.97;;;13.41;96.76
43486;BME280;30447;48.742;8.972;2023-09-07T01:13:07;97137.47;;;13.32;96.99
43486;BME280;30447;48.742;8.972;2023-09-07T01:15:34;97128.81;;;13.30;96.86
43486;BME280;30447;48.742;8.972;2023-09-07T01:18:02;97132.31;;;13.27;96.60
43486;BME280;30447;48.742;8.972;2023-09-07T01:20:32;97138.41;;;13.25;96.89
43486;BME280;30447;48.742;8.972;2023-09-07T01:23:03;97129.72;;;13.27;96.72
43486;BME280;30447;48.742;8.972;2023-09-07T01:25:31;97125.47;;;13.17;97.11
43486;BME280;30447;48.742;8.972;2023-09-07T01:27:58;97128.06;;;13.15;97.39
43486;BME280;30447;48.742;8.972;2023-09-07T01:30:27;97133.38;;;13.03;98.02
43486;BME280;30447;48.742;8.972;2023-09-07T01:32:54;97133.31;;;13.09;97.97
43486;BME280;30447;48.742;8.972;2023-09-07T01:35:22;97128.19;;;13.01;99.13
43486;BME280;30447;48.742;8.972;2023-09-07T01:37:50;97130.78;;;13.03;99.10
43486;BME280;30447;48.742;8.972;2023-09-07T01:40:16;97127.34;;;12.96;99.53
43486;BME280;30447;48.742;8.972;2023-09-07T01:42:43;97130.78;;;13.01;98.77
43486;BME280;30447;48.742;8.972;2023-09-07T01:45:10;97134.22;;;13.06;98.40
43486;BME280;30447;48.742;8.972;2023-09-07T01:47:36;97134.28;;;12.95;99.49
43486;BME280;30447;48.742;8.972;2023-09-07T01:50:03;97129.06;;;12.94;99.64
43486;BME280;30447;48.742;8.972;2023-09-07T01:52:30;97129.91;;;13.01;98.86
43486;BME280;30447;48.742;8.972;2023-09-07T01:54:57;97129.06;;;12.99;99.13
43486;BME280;30447;48.742;8.972;2023-09-07T01:57:24;97128.22;;;12.90;98.75
43486;BME280;30447;48.742;8.972;2023-09-07T01:59:50;97132.50;;;13.01;98.28
43486;BME280;30447;48.742;8.972;2023-09-07T02:02:17;97131.62;;;13.00;97.95
43486;BME280;30447;48.742;8.972;2023-09-07T02:04:44;97127.44;;;12.76;98.21
43486;BME280;30447;48.742;8.972;2023-09-07T02:07:12;97130.00;;;12.82;97.98
43486;BME280;30447;48.742;8.972;2023-09-07T02:09:40;97139.56;;;12.78;98.25
43486;BME280;30447;48.742;8.972;2023-09-07T02:12:07;97136.09;;;12.82;98.09
43486;BME280;30447;48.742;8.972;2023-09-07T02:14:34;97130.06;;;12.77;98.93
43486;BME280;30447;48.742;8.972;2023-09-07T02:17:01;97128.31;;;12.76;99.72
43486;BME280;30447;48.742;8.972;2023-09-07T02:19:27;97127.44;;;12.76;99.72
43486;BME280;30447;48.742;8.972;2023-09-07T02:21:54;97130.19;;;12.52;100.00
43486;BME280;30447;48.742;8.972;2023-09-07T02:24:20;97116.31;;;12.52;99.07
43486;BME280;30447;48.742;8.972;2023-09-07T02:26:47;97124.94;;;12.59;98.02
43486;BME280;30447;48.742;8.972;2023-09-07T02:29:14;97118.06;;;12.51;97.74
43486;BME280;30447;48.742;8.972;2023-09-07T02:31:40;97119.03;;;12.22;99.01
43486;BME280;30447;48.742;8.972;2023-09-07T02:34:07;97125.81;;;12.59;97.79
43486;BME280;30447;48.742;8.972;2023-09-07T02:36:34;97117.22;;;12.48;98.20
43486;BME280;30447;48.742;8.972;2023-09-07T02:39:01;97117.22;;;12.48;98.60
43486;BME280;30447;48.742;8.972;2023-09-07T02:41:31;97116.50;;;12.07;100.00
43486;BME280;30447;48.742;8.972;2023-09-07T02:43:57;97116.41;;;12.32;99.97
43486;BME280;30447;48.742;8.972;2023-09-07T02:46:24;97118.13;;;12.34;99.37
43486;BME280;30447;48.742;8.972;2023-09-07T02:48:50;97119.81;;;12.43;98.59
43486;BME280;30447;48.742;8.972;2023-09-07T02:51:17;97123.25;;;12.47;98.36
43486;BME280;30447;48.742;8.972;2023-09-07T02:53:44;97121.56;;;12.39;99.24
43486;BME280;30447;48.742;8.972;2023-09-07T02:56:11;97128.50;;;12.40;99.05
43486;BME280;30447;48.742;8.972;2023-09-07T02:58:37;97125.03;;;12.41;98.49
43486;BME280;30447;48.742;8.972;2023-09-07T03:01:07;97124.19;;;12.36;98.85
43486;BME280;30447;48.742;8.972;2023-09-07T03:03:37;97119.87;;;12.30;98.94
43486;BME280;30447;48.742;8.972;2023-09-07T03:06:11;97114.69;;;12.26;99.55
43486;BME280;30447;48.742;8.972;2023-09-07T03:08:40;97112.94;;;12.31;98.95
43486;BME280;30447;48.742;8.972;2023-09-07T03:11:08;97119.00;;;12.30;99.13
43486;BME280;30447;48.742;8.972;2023-09-07T03:13:35;97117.31;;;12.21;98.62
43486;BME280;30447;48.742;8.972;2023-09-07T03:16:03;97106.91;;;12.27;98.99
43486;BME280;30447;48.742;8.972;2023-09-07T03:18:31;97108.62;;;12.28;99.49
43486;BME280;30447;48.742;8.972;2023-09-07T03:20:59;97113.00;;;12.19;99.50
43486;BME280;30447;48.742;8.972;2023-09-07T03:23:28;97106.97;;;12.13;99.73
43486;BME280;30447;48.742;8.972;2023-09-07T03:25:57;97100.03;;;12.17;99.49
43486;BME280;30447;48.742;8.972;2023-09-07T03:28:25;97100.91;;;12.13;100.00
43486;BME280;30447;48.742;8.972;2023-09-07T03:30:53;97106.09;;;12.14;99.21
43486;BME280;30447;48.742;8.972;2023-09-07T03:33:21;97098.28;;;12.10;97.64
43486;BME280;30447;48.742;8.972;2023-09-07T03:35:48;97108.69;;;12.10;97.53
43486;BME280;30447;48.742;8.972;2023-09-07T03:38:15;97106.97;;;12.07;97.42
43486;BME280;30447;48.742;8.972;2023-09-07T03:40:41;97106.09;;;11.99;98.73
43486;BME280;30447;48.742;8.972;2023-09-07T03:43:09;97100.03;;;12.01;98.99
43486;BME280;30447;48.742;8.972;2023-09-07T03:45:36;97098.34;;;11.88;99.04
43486;BME280;30447;48.742;8.972;2023-09-07T03:48:02;97099.22;;;11.88;99.44
43486;BME280;30447;48.742;8.972;2023-09-07T03:50:29;97103.53;;;11.93;98.91
43486;BME280;30447;48.742;8.972;2023-09-07T03:52:56;97099.19;;;11.93;98.79
43486;BME280;30447;48.742;8.972;2023-09-07T03:55:23;97104.37;;;11.98;98.27
43486;BME280;30447;48.742;8.972;2023-09-07T03:57:50;97099.19;;;11.96;97.85
43486;BME280;30447;48.742;8.972;2023-09-07T04:00:16;97107.84;;;12.00;97.91
43486;BME280;30447;48.742;8.972;2023-09-07T04:02:44;97112.16;;;11.91;98.00
43486;BME280;30447;48.742;8.972;2023-09-07T04:05:11;97103.56;;;11.77;98.59
43486;BME280;30447;48.742;8.972;2023-09-07T04:07:38;97105.28;;;11.81;98.37
43486;BME280;30447;48.742;8.972;2023-09-07T04:10:05;97100.13;;;11.66;99.45
43486;BME280;30447;48.742;8.972;2023-09-07T04:12:32;97094.91;;;11.78;99.28
43486;BME280;30447;48.742;8.972;2023-09-07T04:15:01;97098.41;;;11.68;99.23
43486;BME280;30447;48.742;8.972;2023-09-07T04:17:29;97098.38;;;11.82;98.60
43486;BME280;30447;48.742;8.972;2023-09-07T04:19:55;97101.00;;;11.64;99.54
43486;BME280;30447;48.742;8.972;2023-09-07T04:22:22;97101.84;;;11.60;100.00
43486;BME280;30447;48.742;8.972;2023-09-07T04:24:49;97100.13;;;11.66;99.14
43486;BME280;30447;48.742;8.972;2023-09-07T04:27:15;97096.66;;;11.60;98.35
43486;BME280;30447;48.742;8.972;2023-09-07T04:29:42;97102.75;;;11.50;98.43
43486;BME280;30447;48.742;8.972;2023-09-07T04:32:09;97093.22;;;11.57;98.71
43486;BME280;30447;48.742;8.972;2023-09-07T04:34:35;97092.34;;;11.59;98.31
43486;BME280;30447;48.742;8.972;2023-09-07T04:37:02;97092.34;;;11.64;98.02
43486;BME280;30447;48.742;8.972;2023-09-07T04:39:28;97101.88;;;11.56;97.52
43486;BME280;30447;48.742;8.972;2023-09-07T04:41:55;97099.28;;;11.57;96.70
43486;BME280;30447;48.742;8.972;2023-09-07T04:44:22;97101.03;;;11.49;97.32
43486;BME280;30447;48.742;8.972;2023-09-07T04:46:48;97101.88;;;11.56;97.14
43486;BME280;30447;48.742;8.972;2023-09-07T04:49:16;97107.94;;;11.44;98.27
43486;BME280;30447;48.742;8.972;2023-09-07T04:51:42;97108.81;;;11.43;99.66
43486;BME280;30447;48.742;8.972;2023-09-07T04:54:09;97109.66;;;11.43;99.16
43486;BME280;30447;48.742;8.972;2023-09-07T04:56:36;97114.84;;;11.49;99.37
43486;BME280;30447;48.742;8.972;2023-09-07T04:59:02;97112.28;;;11.48;98.95
43486;BME280;30447;48.742;8.972;2023-09-07T05:01:29;97114.00;;;11.43;98.65
43486;BME280;30447;48.742;8.972;2023-09-07T05:03:55;97114.00;;;11.40;98.62
43486;BME280;30447;48.742;8.972;2023-09-07T05:06:22;97105.34;;;11.44;98.05
43486;BME280;30447;48.742;8.972;2023-09-07T05:08:52;97107.94;;;11.45;98.20
43486;BME280;30447;48.742;8.972;2023-09-07T05:11:19;97108.81;;;11.47;98.16
43486;BME280;30447;48.742;8.972;2023-09-07T05:13:45;97106.22;;;11.50;98.44
43486;BME280;30447;48.742;8.972;2023-09-07T05:16:12;97111.38;;;11.46;98.61
43486;BME280;30447;48.742;8.972;2023-09-07T05:18:40;97113.97;;;11.52;98.03
43486;BME280;30447;48.742;8.972;2023-09-07T05:21:15;97109.66;;;11.49;97.75
43486;BME280;30447;48.742;8.972;2023-09-07T05:23:42;97117.47;;;11.46;98.23
43486;BME280;30447;48.742;8.972;2023-09-07T05:26:09;97120.06;;;11.46;99.02
43486;BME280;30447;48.742;8.972;2023-09-07T05:28:36;97121.78;;;11.18;100.00
43486;BME280;30447;48.742;8.972;2023-09-07T05:31:03;97126.97;;;11.30;100.00
43486;BME280;30447;48.742;8.972;2023-09-07T05:33:30;97120.03;;;11.54;100.00
43486;BME280;30447;48.742;8.972;2023-09-07T05:35:56;97127.81;;;11.71;100.00
43486;BME280;30447;48.742;8.972;2023-09-07T05:38:23;97129.53;;;11.54;100.00
43486;BME280;30447;48.742;8.972;2023-09-07T05:40:49;97133.88;;;11.51;100.00
43486;BME280;30447;48.742;8.972;2023-09-07T05:43:20;97128.69;;;11.53;100.00
43486;BME280;30447;48.742;8.972;2023-09-07T05:45:47;97126.94;;;11.72;100.00
43486;BME280;30447;48.742;8.972;2023-09-07T05:48:14;97130.41;;;11.81;100.00
43486;BME280;30447;48.742;8.972;2023-09-07T05:50:44;97130.34;;;11.91;100.00
43486;BME280;30447;48.742;8.972;2023-09-07T05:53:11;97130.34;;;12.04;100.00
43486;BME280;30447;48.742;8.972;2023-09-07T05:55:38;97129.50;;;12.05;100.00
43486;BME280;30447;48.742;8.972;2023-09-07T05:58:07;97130.34;;;12.13;100.00
43486;BME280;30447;48.742;8.972;2023-09-07T06:00:35;97129.41;;;12.28;100.00
43486;BME280;30447;48.742;8.972;2023-09-07T06:03:02;97132.81;;;12.40;100.00
43486;BME280;30447;48.742;8.972;2023-09-07T06:05:29;97132.78;;;12.51;100.00
43486;BME280;30447;48.742;8.972;2023-09-07T06:07:56;97132.75;;;12.59;100.00
43486;BME280;30447;48.742;8.972;2023-09-07T06:10:23;97136.13;;;12.76;100.00
43486;BME280;30447;48.742;8.972;2023-09-07T06:12:49;97134.38;;;12.81;100.00
43486;BME280;30447;48.742;8.972;2023-09-07T06:15:16;97141.22;;;12.93;100.00
43486;BME280;30447;48.742;8.972;2023-09-07T06:17:43;97131.56;;;13.09;100.00
43486;BME280;30447;48.742;8.972;2023-09-07T06:20:10;97133.22;;;13.21;100.00
43486;BME280;30447;48.742;8.972;2023-09-07T06:22:36;97135.69;;;13.39;100.00
43486;BME280;30447;48.742;8.972;2023-09-07T06:25:03;97122.63;;;13.48;100.00
43486;BME280;30447;48.742;8.972;2023-09-07T06:27:30;97132.03;;;13.65;100.00
43486;BME280;30447;48.742;8.972;2023-09-07T06:29:56;97130.16;;;13.78;100.00
43486;BME280;30447;48.742;8.972;2023-09-07T06:32:23;97131.78;;;13.91;100.00
43486;BME280;30447;48.742;8.972;2023-09-07T06:34:50;97129.81;;;14.12;100.00
43486;BME280;30447;48.742;8.972;2023-09-07T06:37:17;97134.00;;;14.27;100.00
43486;BME280;30447;48.742;8.972;2023-09-07T06:39:44;97131.31;;;14.32;100.00
43486;BME280;30447;48.742;8.972;2023-09-07T06:42:10;97132.03;;;14.46;100.00
43486;BME280;30447;48.742;8.972;2023-09-07T06:44:37;97126.56;;;14.66;100.00
43486;BME280;30447;48.742;8.972;2023-09-07T06:47:04;97137.66;;;14.83;100.00
43486;BME280;30447;48.742;8.972;2023-09-07T06:49:30;97140.00;;;15.03;100.00
43486;BME280;30447;48.742;8.972;2023-09-07T06:51:57;97137.16;;;15.18;100.00
43486;BME280;30447;48.742;8.972;2023-09-07T06:54:23;97141.19;;;15.40;100.00
43486;BME280;30447;48.742;8.972;2023-09-07T06:56:50;97143.59;;;15.51;100.00
43486;BME280;30447;48.742;8.972;2023-09-07T06:59:17;97143.47;;;15.58;100.00
43486;BME280;30447;48.742;8.972;2023-09-07T07:01:43;97148.31;;;15.82;100.00
43486;BME280;30447;48.742;8.972;2023-09-07T07:04:10;97152.41;;;15.98;100.00
43486;BME280;30447;48.742;8.972;2023-09-07T07:06:36;97145.16;;;16.13;100.00
43486;BME280;30447;48.742;8.972;2023-09-07T07:09:04;97141.41;;;16.26;100.00
43486;BME280;30447;48.742;8.972;2023-09-07T07:11:32;97149.81;;;16.43;100.00
43486;BME280;30447;48.742;8.972;2023-09-07T07:13:58;97159.09;;;16.58;100.00
43486;BME280;30447;48.742;8.972;2023-09-07T07:16:25;97158.78;;;16.73;100.00
43486;BME280;30447;48.742;8.972;2023-09-07T07:18:51;97149.84;;;16.82;100.00
43486;BME280;30447;48.742;8.972;2023-09-07T07:21:18;97154.88;;;16.93;100.00
43486;BME280;30447;48.742;8.972;2023-09-07T07:23:45;97153.75;;;17.05;100.00
43486;BME280;30447;48.742;8.972;2023-09-07T07:26:11;97150.06;;;17.14;99.06
43486;BME280;30447;48.742;8.972;2023-09-07T07:28:38;97156.00;;;17.22;97.91
43486;BME280;30447;48.742;8.972;2023-09-07T07:31:09;97151.31;;;17.35;97.16
43486;BME280;30447;48.742;8.972;2023-09-07T07:33:36;97152.81;;;17.45;97.99
43486;BME280;30447;48.742;8.972;2023-09-07T07:36:04;97145.53;;;17.58;97.02
43486;BME280;30447;48.742;8.972;2023-09-07T07:38:31;97146.03;;;17.73;97.34
43486;BME280;30447;48.742;8.972;2023-09-07T07:40:58;97140.63;;;17.79;97.51
43486;BME280;30447;48.742;8.972;2023-09-07T07:43:24;97139.44;;;17.91;95.58
43486;BME280;30447;48.742;8.972;2023-09-07T07:45:53;97143.53;;;18.02;96.63
43486;BME280;30447;48.742;8.972;2023-09-07T07:48:20;97145.91;;;18.13;96.48
43486;BME280;30447;48.742;8.972;2023-09-07T07:50:47;97136.81;;;18.24;96.17
43486;BME280;30447;48.742;8.972;2023-09-07T07:53:13;97130.56;;;18.30;96.71
43486;BME280;30447;48.742;8.972;2023-09-07T07:55:41;97132.00;;;18.41;96.70
43486;BME280;30447;48.742;8.972;2023-09-07T07:58:09;97130.88;;;18.49;95.31
43486;BME280;30447;48.742;8.972;2023-09-07T08:00:37;97133.19;;;18.60;96.11
43486;BME280;30447;48.742;8.972;2023-09-07T08:03:04;97128.56;;;18.70;95.99
43486;BME280;30447;48.742;8.972;2023-09-07T08:05:35;97135.09;;;18.85;95.95
43486;BME280;30447;48.742;8.972;2023-09-07T08:08:01;97132.31;;;18.90;95.07
43486;BME280;30447;48.742;8.972;2023-09-07T08:10:29;97133.00;;;18.97;94.71
43486;BME280;30447;48.742;8.972;2023-09-07T08:12:56;97134.53;;;19.06;94.11
43486;BME280;30447;48.742;8.972;2023-09-07T08:15:23;97129.03;;;19.13;93.58
43486;BME280;30447;48.742;8.972;2023-09-07T08:17:51;97127.03;;;19.20;90.57
43486;BME280;30447;48.742;8.972;2023-09-07T08:20:18;97125.78;;;19.32;90.66
43486;BME280;30447;48.742;8.972;2023-09-07T08:22:44;97118.50;;;19.42;90.29
43486;BME280;30447;48.742;8.972;2023-09-07T08:25:13;97117.38;;;19.49;90.51
43486;BME280;30447;48.742;8.972;2023-09-07T08:27:41;97127.47;;;19.62;89.96
43486;BME280;30447;48.742;8.972;2023-09-07T08:30:14;97124.72;;;19.65;88.02
43486;BME280;30447;48.742;8.972;2023-09-07T08:32:43;97123.19;;;19.85;89.31
43486;BME280;30447;48.742;8.972;2023-09-07T08:35:12;97128.94;;;19.96;88.29
43486;BME280;30447;48.742;8.972;2023-09-07T08:37:40;97120.13;;;19.99;88.33
43486;BME280;30447;48.742;8.972;2023-09-07T08:40:08;97121.53;;;20.09;87.86
43486;BME280;30447;48.742;8.972;2023-09-07T08:42:36;97124.62;;;20.20;88.41
43486;BME280;30447;48.742;8.972;2023-09-07T08:45:03;97117.03;;;20.37;88.47
43486;BME280;30447;48.742;8.972;2023-09-07T08:47:37;97121.47;;;20.34;86.70
43486;BME280;30447;48.742;8.972;2023-09-07T08:50:05;97122.78;;;20.46;88.28
43486;BME280;30447;48.742;8.972;2023-09-07T08:52:34;97122.66;;;20.51;86.83
43486;BME280;30447;48.742;8.972;2023-09-07T08:55:02;97129.97;;;20.67;88.09
43486;BME280;30447;48.742;8.972;2023-09-07T08:57:32;97129.59;;;20.76;87.00
43486;BME280;30447;48.742;8.972;2023-09-07T08:59:59;97128.16;;;20.67;85.40
43486;BME280;30447;48.742;8.972;2023-09-07T09:02:26;97128.94;;;20.71;85.32
43486;BME280;30447;48.742;8.972;2023-09-07T09:04:53;97130.16;;;20.84;84.99
43486;BME280;30447;48.742;8.972;2023-09-07T09:07:20;97120.16;;;20.94;84.87
43486;BME280;30447;48.742;8.972;2023-09-07T09:09:47;97134.63;;;21.06;85.40
43486;BME280;30447;48.742;8.972;2023-09-07T09:12:14;97129.94;;;21.13;85.26
43486;BME280;30447;48.742;8.972;2023-09-07T09:14:44;97125.56;;;21.13;85.36
43486;BME280;30447;48.742;8.972;2023-09-07T09:17:15;97130.16;;;21.31;86.03
43486;BME280;30447;48.742;8.972;2023-09-07T09:19:42;97129.78;;;21.40;84.19
43486;BME280;30447;48.742;8.972;2023-09-07T09:22:09;97129.06;;;21.36;83.35
43486;BME280;30447;48.742;8.972;2023-09-07T09:24:38;97115.41;;;21.47;83.45
43486;BME280;30447;48.742;8.972;2023-09-07T09:27:04;97117.28;;;21.66;82.79
43486;BME280;30447;48.742;8.972;2023-09-07T09:29:35;97118.75;;;21.73;83.86
43486;BME280;30447;48.742;8.972;2023-09-07T09:32:07;97109.75;;;21.79;83.06
43486;BME280;30447;48.742;8.972;2023-09-07T09:34:35;97108.09;;;21.97;82.63
43486;BME280;30447;48.742;8.972;2023-09-07T09:37:03;97107.25;;;21.97;82.56
43486;BME280;30447;48.742;8.972;2023-09-07T09:39:30;97109.56;;;22.04;83.43
43486;BME280;30447;48.742;8.972;2023-09-07T09:41:57;97108.41;;;22.10;84.00
43486;BME280;30447;48.742;8.972;2023-09-07T09:44:28;97103.00;;;22.13;82.84
43486;BME280;30447;48.742;8.972;2023-09-07T09:46:55;97104.37;;;22.22;82.63
43486;BME280;30447;48.742;8.972;2023-09-07T09:49:23;97101.38;;;22.30;82.45
43486;BME280;30447;48.742;8.972;2023-09-07T09:51:50;97100.03;;;22.40;81.97
43486;BME280;30447;48.742;8.972;2023-09-07T09:54:20;97096.16;;;22.49;82.72
43486;BME280;30447;48.742;8.972;2023-09-07T09:56:47;97098.47;;;22.57;82.20
43486;BME280;30447;48.742;8.972;2023-09-07T10:01:44;97099.88;;;22.64;83.28
43486;BME280;30447;48.742;8.972;2023-09-07T10:04:17;97100.38;;;22.72;82.15
43486;BME280;30447;48.742;8.972;2023-09-07T10:06:56;97100.28;;;22.74;82.73
43486;BME280;30447;48.742;8.972;2023-09-07T10:09:34;97099.66;;;22.88;81.47
43486;BME280;30447;48.742;8.972;2023-09-07T10:12:03;97099.88;;;22.64;80.53
43486;BME280;30447;48.742;8.972;2023-09-07T10:14:41;97102.94;;;22.74;81.82
43486;BME280;30447;48.742;8.972;2023-09-07T10:17:08;97106.66;;;22.89;81.71
43486;BME280;30447;48.742;8.972;2023-09-07T10:19:35;97104.28;;;23.02;82.90
43486;BME280;30447;48.742;8.972;2023-09-07T10:22:04;97096.28;;;23.21;81.54
43486;BME280;30447;48.742;8.972;2023-09-07T10:24:33;97093.94;;;23.34;80.25
43486;BME280;30447;48.742;8.972;2023-09-07T10:27:09;97090.06;;;23.42;81.38
43486;BME280;30447;48.742;8.972;2023-09-07T10:29:46;97082.69;;;23.48;79.55
43486;BME280;30447;48.742;8.972;2023-09-07T10:32:17;97085.78;;;23.39;78.04
43486;BME280;30447;48.742;8.972;2023-09-07T10:34:43;97080.00;;;23.31;79.71
43486;BME280;30447;48.742;8.972;2023-09-07T10:37:10;97089.94;;;23.45;80.41
43486;BME280;30447;48.742;8.972;2023-09-07T10:39:40;97077.97;;;23.55;79.94
43486;BME280;30447;48.742;8.972;2023-09-07T10:42:21;97083.88;;;23.60;81.12
43486;BME280;30447;48.742;8.972;2023-09-07T10:44:48;97070.31;;;23.67;81.48
43486;BME280;30447;48.742;8.972;2023-09-07T10:47:15;97063.94;;;23.71;80.70
43486;BME280;30447;48.742;8.972;2023-09-07T10:49:42;97060.13;;;23.76;78.69
43486;BME280;30447;48.742;8.972;2023-09-07T10:52:08;97059.59;;;23.70;80.17
43486;BME280;30447;48.742;8.972;2023-09-07T10:54:35;97063.22;;;23.85;77.74
43486;BME280;30447;48.742;8.972;2023-09-07T10:57:10;97059.69;;;24.02;80.77
43486;BME280;30447;48.742;8.972;2023-09-07T10:59:44;97056.78;;;24.07;77.94
43486;BME280;30447;48.742;8.972;2023-09-07T11:02:12;97056.97;;;24.03;78.72
43486;BME280;30447;48.742;8.972;2023-09-07T11:04:38;97061.03;;;24.11;81.47
43486;BME280;30447;48.742;8.972;2023-09-07T11:07:06;97053.72;;;24.32;78.04
43486;BME280;30447;48.742;8.972;2023-09-07T11:09:33;97053.72;;;24.32;77.69
43486;BME280;30447;48.742;8.972;2023-09-07T11:12:06;97051.69;;;24.37;78.93
43486;BME280;30447;48.742;8.972;2023-09-07T11:14:34;97053.56;;;24.35;78.26
43486;BME280;30447;48.742;8.972;2023-09-07T11:17:01;97052.56;;;24.38;77.11
43486;BME280;30447;48.742;8.972;2023-09-07T11:19:33;97055.69;;;24.44;78.81
43486;BME280;30447;48.742;8.972;2023-09-07T11:22:00;97045.28;;;24.41;78.20
43486;BME280;30447;48.742;8.972;2023-09-07T11:24:27;97043.78;;;24.53;79.42
43486;BME280;30447;48.742;8.972;2023-09-07T11:26:53;97042.41;;;24.62;76.75
43486;BME280;30447;48.742;8.972;2023-09-07T11:29:22;97038.63;;;24.50;77.98
43486;BME280;30447;48.742;8.972;2023-09-07T11:31:49;97043.84;;;24.52;77.60
43486;BME280;30447;48.742;8.972;2023-09-07T11:34:15;97047.84;;;24.59;78.33
43486;BME280;30447;48.742;8.972;2023-09-07T11:36:43;97049.75;;;24.73;76.41
43486;BME280;30447;48.742;8.972;2023-09-07T11:39:10;97048.28;;;24.67;76.79
43486;BME280;30447;48.742;8.972;2023-09-07T11:41:42;97046.16;;;24.74;77.88
43486;BME280;30447;48.742;8.972;2023-09-07T11:44:11;97043.50;;;24.74;76.61
43486;BME280;30447;48.742;8.972;2023-09-07T11:46:38;97039.03;;;24.75;76.61
43486;BME280;30447;48.742;8.972;2023-09-07T11:49:05;97039.44;;;24.85;77.59
43486;BME280;30447;48.742;8.972;2023-09-07T11:51:32;97037.69;;;25.00;75.58
43486;BME280;30447;48.742;8.972;2023-09-07T11:54:02;97038.69;;;25.13;76.47
43486;BME280;30447;48.742;8.972;2023-09-07T11:56:29;97036.50;;;25.05;74.40
43486;BME280;30447;48.742;8.972;2023-09-07T11:58:56;97036.81;;;25.15;76.38
43486;BME280;30447;48.742;8.972;2023-09-07T12:01:23;97027.09;;;25.00;76.79
43486;BME280;30447;48.742;8.972;2023-09-07T12:03:50;97029.13;;;25.11;77.22
43486;BME280;30447;48.742;8.972;2023-09-07T12:06:17;97023.06;;;25.39;77.21
43486;BME280;30447;48.742;8.972;2023-09-07T12:08:58;97026.97;;;25.17;76.21
43486;BME280;30447;48.742;8.972;2023-09-07T12:11:26;97026.03;;;25.18;76.83
43486;BME280;30447;48.742;8.972;2023-09-07T12:13:53;97024.97;;;25.37;75.58
43486;BME280;30447;48.742;8.972;2023-09-07T12:16:20;97027.69;;;25.35;75.29
43486;BME280;30447;48.742;8.972;2023-09-07T12:18:46;97026.41;;;25.43;74.45
43486;BME280;30447;48.742;8.972;2023-09-07T12:21:13;97028.56;;;25.36;75.02
43486;BME280;30447;48.742;8.972;2023-09-07T12:23:39;97016.41;;;25.62;74.38
43486;BME280;30447;48.742;8.972;2023-09-07T12:26:06;97018.72;;;25.83;73.99
43486;BME280;30447;48.742;8.972;2023-09-07T12:28:33;97008.44;;;25.62;74.31
43486;BME280;30447;48.742;8.972;2023-09-07T12:30:59;97017.22;;;25.48;74.92
43486;BME280;30447;48.742;8.972;2023-09-07T12:33:26;97015.03;;;25.71;75.96
43486;BME280;30447;48.742;8.972;2023-09-07T12:35:55;97017.31;;;25.92;73.65
43486;BME280;30447;48.742;8.972;2023-09-07T12:38:22;97014.56;;;25.94;73.87
43486;BME280;30447;48.742;8.972;2023-09-07T12:40:53;97016.06;;;25.83;74.07
43486;BME280;30447;48.742;8.972;2023-09-07T12:43:20;97007.72;;;25.75;73.89
43486;BME280;30447;48.742;8.972;2023-09-07T12:45:47;97008.84;;;25.71;74.65
43486;BME280;30447;48.742;8.972;2023-09-07T12:48:13;97020.50;;;25.68;74.40
43486;BME280;30447;48.742;8.972;2023-09-07T12:50:40;97013.50;;;25.82;73.09
43486;BME280;30447;48.742;8.972;2023-09-07T12:53:07;97011.91;;;25.79;73.77
43486;BME280;30447;48.742;8.972;2023-09-07T12:55:33;97013.03;;;25.75;74.19
43486;BME280;30447;48.742;8.972;2023-09-07T12:58:00;97013.50;;;25.82;74.53
43486;BME280;30447;48.742;8.972;2023-09-07T13:00:28;97008.09;;;25.98;73.27
43486;BME280;30447;48.742;8.972;2023-09-07T13:02:55;97009.62;;;26.17;72.74